King Salmon Airport King Salmon US
ICAO: PAKN
IATA:
Category: Medium
Scheduled Services:

Elevation: 73 ft
TransAlt. 18000 ft.

Airport Communications:
HARMONY:140.1
ATIS:128.8
ANCHORAGE CNTR:124.8
CTAF:121.9
RDO:122.2
GND:121.9
OPS:37.22
PTD:37.22
TWR:118.3

PAKN Zoom In..

Runways:

(A) RW 12 length 8901 ft width 150 ft
ILS 110.30 / hdg 116

(B) RW 18 length 4018 ft width 100 ft
---- / hdg 180

(C) RW 30 length 8901 ft width 150 ft
---- / hdg 296

(D) RW 36 length 4018 ft width 100 ft
---- / hdg 360

Location; PAKN
Day. 08 / Time. 03.54 Zulu
* Altimeter: 29.74
* Temperature: 02° c. 35.6°f.
* Wind from: 030° Speed 10 kn.
Dewpoint: -07° c.
Visibility: 10 Statute Miles.
Clouds: Few 9500 ft.

PAKN 080354Z 03010KT 10SM FEW095 02/M07 A2974 RMK AO2 SLP071 T00171067


Wind From 030°
Speed 10 kn.

 
 
jpsmedia worldairports.se 2020   terms of use